createdAt,value
2023-03-04T00:00:47.295Z,77.70
2023-03-04T00:02:54.073Z,77.90
2023-03-04T00:05:01.259Z,78.10
2023-03-04T00:07:08.176Z,78.30
2023-03-04T00:09:17.050Z,77.90
2023-03-04T00:11:23.983Z,77.90
2023-03-04T00:13:30.950Z,77.50
2023-03-04T00:15:37.661Z,78.00
2023-03-04T00:17:47.210Z,78.80
2023-03-04T00:19:54.034Z,78.40
2023-03-04T00:22:01.315Z,78.40
2023-03-04T00:24:08.919Z,78.50
2023-03-04T00:26:17.733Z,78.20
2023-03-04T00:28:25.985Z,77.60
2023-03-04T00:30:32.864Z,77.40
2023-03-04T00:32:40.040Z,77.10
2023-03-04T00:34:47.173Z,76.50
2023-03-04T00:36:54.298Z,75.60
2023-03-04T00:39:01.128Z,75.40
2023-03-04T00:41:08.867Z,75.30
2023-03-04T00:43:17.434Z,75.30
2023-03-04T00:45:24.407Z,74.70
2023-03-04T00:47:31.590Z,74.80
2023-03-04T00:49:39.029Z,74.40
2023-03-04T00:51:45.849Z,74.00
2023-03-04T00:53:53.391Z,74.70
2023-03-04T00:56:00.212Z,74.10
2023-03-04T00:58:07.451Z,73.90
2023-03-04T01:00:17.854Z,73.80
2023-03-04T01:02:25.261Z,73.60
2023-03-04T01:04:32.832Z,73.70
2023-03-04T01:06:39.809Z,72.60
2023-03-04T01:08:46.474Z,72.40
2023-03-04T01:10:53.501Z,73.20
2023-03-04T01:13:00.689Z,72.80
2023-03-04T01:15:08.481Z,71.20
2023-03-04T01:17:16.995Z,70.70
2023-03-04T01:19:24.174Z,70.30
2023-03-04T01:21:31.201Z,69.90
2023-03-04T01:23:38.231Z,70.10
2023-03-04T01:25:44.899Z,70.30
2023-03-04T01:27:51.927Z,70.70
2023-03-04T01:29:59.518Z,70.30
2023-03-04T01:32:06.860Z,70.40
2023-03-04T01:34:15.468Z,72.00
2023-03-04T01:36:22.861Z,70.80
2023-03-04T01:38:30.242Z,70.30
2023-03-04T01:40:37.422Z,70.20
2023-03-04T01:42:44.402Z,70.10
2023-03-04T01:44:52.049Z,69.30
2023-03-04T01:46:59.946Z,68.90
2023-03-04T01:49:09.438Z,70.00
2023-03-04T01:51:20.296Z,69.20
2023-03-04T01:53:29.889Z,69.60
2023-03-04T01:55:36.965Z,68.90
2023-03-04T01:57:44.044Z,69.10
2023-03-04T02:00:12.217Z,68.70
2023-03-04T02:02:20.628Z,69.00
2023-03-04T02:04:30.003Z,68.60
2023-03-04T02:06:40.128Z,69.10
2023-03-04T02:08:47.189Z,68.60
2023-03-04T02:10:55.515Z,68.60
2023-03-04T02:13:03.301Z,68.50
2023-03-04T02:15:11.296Z,69.20
2023-03-04T02:17:18.221Z,67.90
2023-03-04T02:19:40.046Z,68.80
2023-03-04T02:21:48.564Z,68.50
2023-03-04T02:24:02.704Z,68.20
2023-03-04T02:26:18.104Z,67.90
2023-03-04T02:28:27.666Z,68.40
2023-03-04T02:30:34.759Z,68.20
2023-03-04T02:32:41.824Z,65.80
2023-03-04T02:34:52.696Z,65.50
2023-03-04T02:37:00.643Z,64.70
2023-03-04T02:39:15.095Z,63.80
2023-03-04T02:41:27.145Z,63.20
2023-03-04T02:43:34.014Z,63.20
2023-03-04T02:45:45.451Z,62.60
2023-03-04T02:47:52.429Z,62.20
2023-03-04T02:49:59.612Z,61.80
2023-03-04T02:52:08.788Z,61.20
2023-03-04T02:54:20.223Z,61.10
2023-03-04T02:56:28.914Z,61.40
2023-03-04T02:58:36.065Z,61.40
2023-03-04T03:00:43.862Z,60.10
2023-03-04T03:02:51.705Z,59.70
2023-03-04T03:04:58.687Z,59.90
2023-03-04T03:07:07.100Z,60.10
2023-03-04T03:09:14.022Z,60.00
2023-03-04T03:11:21.246Z,58.90
2023-03-04T03:13:30.088Z,59.80
2023-03-04T03:15:38.537Z,59.30
2023-03-04T03:17:45.515Z,57.90
2023-03-04T03:19:54.079Z,58.60
2023-03-04T03:22:01.053Z,58.40
2023-03-04T03:24:08.489Z,58.20
2023-03-04T03:26:15.414Z,58.00
2023-03-04T03:28:22.751Z,58.30
2023-03-04T03:30:31.108Z,58.20
2023-03-04T03:32:38.208Z,57.20
2023-03-04T03:34:45.381Z,57.70
2023-03-04T03:36:52.754Z,58.40
2023-03-04T03:38:59.484Z,57.30
2023-03-04T03:41:06.421Z,57.20
2023-03-04T03:43:13.327Z,57.50
2023-03-04T03:45:20.559Z,58.10
2023-03-04T03:47:29.224Z,58.60
2023-03-04T03:49:36.360Z,56.80
2023-03-04T03:51:43.332Z,55.10
2023-03-04T03:53:50.616Z,55.40
2023-03-04T03:55:57.444Z,56.20
2023-03-04T03:58:04.300Z,56.50
2023-03-04T04:00:12.775Z,56.00
2023-03-04T04:02:19.896Z,55.80
2023-03-04T04:04:28.473Z,55.40
2023-03-04T04:06:35.455Z,55.20
2023-03-04T04:08:42.323Z,55.10
2023-03-04T04:10:49.402Z,54.80
2023-03-04T04:12:56.276Z,53.60
2023-03-04T04:15:03.419Z,54.70
2023-03-04T04:17:10.933Z,54.80
2023-03-04T04:19:21.418Z,54.80
2023-03-04T04:21:30.278Z,54.40
2023-03-04T04:23:37.150Z,54.10
2023-03-04T04:25:44.077Z,54.00
2023-03-04T04:27:51.360Z,53.20
2023-03-04T04:29:58.546Z,52.90
2023-03-04T04:32:05.441Z,53.00
2023-03-04T04:34:12.654Z,51.60
2023-03-04T04:36:19.627Z,53.10
2023-03-04T04:38:28.137Z,52.20
2023-03-04T04:40:35.010Z,52.20
2023-03-04T04:42:41.939Z,51.00
2023-03-04T04:44:48.605Z,52.00
2023-03-04T04:46:55.681Z,53.20
2023-03-04T04:49:02.660Z,53.70
2023-03-04T04:51:10.252Z,53.30
2023-03-04T04:53:17.227Z,51.80
2023-03-04T04:55:26.046Z,51.90
2023-03-04T04:57:32.819Z,52.00
2023-03-04T04:59:40.101Z,51.40
2023-03-04T05:01:46.889Z,51.50
2023-03-04T05:03:54.266Z,51.40
2023-03-04T05:06:00.891Z,51.50
2023-03-04T05:08:08.015Z,51.30
2023-03-04T05:10:15.055Z,51.40
2023-03-04T05:12:23.863Z,50.30
2023-03-04T05:14:30.686Z,50.70
2023-03-04T05:16:37.827Z,50.40
2023-03-04T05:18:45.002Z,50.30
2023-03-04T05:20:55.207Z,50.10
2023-03-04T05:23:02.136Z,50.30
2023-03-04T05:25:09.874Z,49.30
2023-03-04T05:27:16.700Z,50.10
2023-03-04T05:29:25.517Z,49.90
2023-03-04T05:31:32.495Z,48.90
2023-03-04T05:33:39.832Z,48.00
2023-03-04T05:35:47.918Z,48.50
2023-03-04T05:37:55.066Z,47.90
2023-03-04T05:40:01.996Z,47.50
2023-03-04T05:42:09.326Z,48.00
2023-03-04T05:44:16.054Z,47.90
2023-03-04T05:46:26.544Z,48.00
2023-03-04T05:48:33.330Z,47.50
2023-03-04T05:50:40.509Z,47.00
2023-03-04T05:52:47.650Z,47.50
2023-03-04T05:54:54.875Z,47.20
2023-03-04T05:57:01.798Z,46.00
2023-03-04T05:59:09.084Z,46.60
2023-03-04T06:01:16.015Z,47.20
2023-03-04T06:03:26.000Z,47.10
2023-03-04T06:05:32.778Z,45.40
2023-03-04T06:07:40.061Z,46.30
2023-03-04T06:09:47.863Z,45.40
2023-03-04T06:11:54.582Z,47.70
2023-03-04T06:14:01.517Z,46.90
2023-03-04T06:16:09.158Z,45.60
2023-03-04T06:18:16.432Z,46.40
2023-03-04T06:20:25.253Z,45.20
2023-03-04T06:22:32.282Z,46.30
2023-03-04T06:24:39.256Z,45.60
2023-03-04T06:26:46.387Z,45.70
2023-03-04T06:28:53.158Z,46.10
2023-03-04T06:31:00.762Z,45.80
2023-03-04T06:33:07.520Z,46.60
2023-03-04T06:35:14.804Z,46.20
2023-03-04T06:37:23.522Z,44.60
2023-03-04T06:39:30.706Z,46.20
2023-03-04T06:41:38.398Z,46.20
2023-03-04T06:43:45.633Z,45.40
2023-03-04T06:45:52.912Z,46.10
2023-03-04T06:48:00.045Z,45.60
2023-03-04T06:50:06.868Z,45.60
2023-03-04T06:52:14.050Z,45.40
2023-03-04T06:54:22.511Z,45.60
2023-03-04T06:56:29.899Z,46.20
2023-03-04T06:58:37.090Z,47.30
2023-03-04T07:00:44.273Z,46.40
2023-03-04T07:02:51.404Z,46.80
2023-03-04T07:04:59.290Z,46.00
2023-03-04T07:07:06.115Z,45.20
2023-03-04T07:09:13.191Z,45.30
2023-03-04T07:11:22.989Z,44.30
2023-03-04T07:13:29.910Z,44.10
2023-03-04T07:15:37.234Z,45.20
2023-03-04T07:17:44.225Z,46.30
2023-03-04T07:19:50.994Z,43.80
2023-03-04T07:21:58.238Z,45.20
2023-03-04T07:24:05.100Z,45.70
2023-03-04T07:26:12.538Z,45.80
2023-03-04T07:28:21.210Z,45.10
2023-03-04T07:30:28.388Z,45.20
2023-03-04T07:32:36.875Z,44.60
2023-03-04T07:34:43.918Z,45.20
2023-03-04T07:36:50.595Z,45.40
2023-03-04T07:38:57.786Z,46.30
2023-03-04T07:41:04.665Z,45.60
2023-03-04T07:43:14.444Z,47.20
2023-03-04T07:45:23.776Z,46.20
2023-03-04T07:47:30.970Z,45.10
2023-03-04T07:49:37.684Z,44.60
2023-03-04T07:51:44.664Z,44.80
2023-03-04T07:53:52.969Z,43.90
2023-03-04T07:56:02.290Z,44.40
2023-03-04T07:58:09.427Z,45.30
2023-03-04T08:00:18.656Z,45.30
2023-03-04T08:02:27.360Z,45.50
2023-03-04T08:04:34.353Z,44.90
2023-03-04T08:06:44.247Z,44.70
2023-03-04T08:08:51.581Z,44.60
2023-03-04T08:10:58.306Z,44.90
2023-03-04T08:13:05.740Z,46.00
2023-03-04T08:15:13.438Z,45.10
2023-03-04T08:17:20.376Z,44.60
2023-03-04T08:19:29.029Z,44.20
2023-03-04T08:21:37.358Z,46.00
2023-03-04T08:23:44.836Z,46.50
2023-03-04T08:25:52.157Z,46.00
2023-03-04T08:27:58.878Z,45.80
2023-03-04T08:30:06.009Z,45.10
2023-03-04T08:32:13.166Z,44.40
2023-03-04T08:34:20.780Z,44.60
2023-03-04T08:36:29.191Z,44.70
2023-03-04T08:38:36.375Z,44.80
2023-03-04T08:40:43.296Z,44.70
2023-03-04T08:42:50.172Z,45.70
2023-03-04T08:44:57.241Z,45.60
2023-03-04T08:47:04.164Z,45.90
2023-03-04T08:49:11.920Z,46.20
2023-03-04T08:51:19.564Z,45.50
2023-03-04T08:53:28.689Z,44.90
2023-03-04T08:55:35.658Z,44.90
2023-03-04T08:57:42.976Z,45.20
2023-03-04T08:59:49.877Z,45.00
2023-03-04T09:01:57.214Z,44.50
2023-03-04T09:04:04.143Z,45.40
2023-03-04T09:06:12.346Z,46.70
2023-03-04T09:08:20.142Z,46.30
2023-03-04T09:10:29.327Z,45.40
2023-03-04T09:12:36.041Z,46.00
2023-03-04T09:14:42.965Z,46.80
2023-03-04T09:16:49.668Z,46.90
2023-03-04T09:18:56.610Z,46.30
2023-03-04T09:21:03.229Z,46.00
2023-03-04T09:23:10.770Z,46.10
2023-03-04T09:25:18.466Z,45.60
2023-03-04T09:27:27.591Z,45.40
2023-03-04T09:29:35.080Z,44.30
2023-03-04T09:31:42.173Z,45.00
2023-03-04T09:33:49.036Z,45.80
2023-03-04T09:35:55.946Z,45.70
2023-03-04T09:38:03.087Z,45.70
2023-03-04T09:40:12.268Z,46.20
2023-03-04T09:42:30.676Z,46.10
2023-03-04T09:44:40.935Z,46.10
2023-03-04T09:46:50.200Z,46.00
2023-03-04T09:48:59.683Z,45.70
2023-03-04T09:51:17.215Z,45.60
2023-03-04T09:53:29.099Z,45.80
2023-03-04T09:55:37.013Z,46.20
2023-03-04T09:57:51.912Z,47.70
2023-03-04T10:00:09.021Z,46.90
2023-03-04T10:02:30.500Z,46.70
2023-03-04T10:04:42.729Z,47.20
2023-03-04T10:06:55.454Z,47.50
2023-03-04T10:09:05.535Z,47.90
2023-03-04T10:11:18.886Z,47.90
2023-03-04T10:13:34.133Z,48.40
2023-03-04T10:15:43.428Z,48.40
2023-03-04T10:17:54.705Z,48.40
2023-03-04T10:20:03.990Z,48.00
2023-03-04T10:22:23.103Z,47.90
2023-03-04T10:24:32.179Z,48.30
2023-03-04T10:26:39.509Z,48.40
2023-03-04T10:28:47.863Z,48.60
2023-03-04T10:31:01.091Z,48.70
2023-03-04T10:33:14.910Z,49.10
2023-03-04T10:35:24.746Z,49.50
2023-03-04T10:37:50.181Z,49.40
2023-03-04T10:39:57.047Z,49.90
2023-03-04T10:42:06.242Z,49.90
2023-03-04T10:44:20.354Z,50.10
2023-03-04T10:46:27.662Z,50.20
2023-03-04T10:48:35.801Z,49.90
2023-03-04T10:50:42.792Z,50.20
2023-03-04T10:52:54.040Z,50.50
2023-03-04T10:55:03.598Z,50.60
2023-03-04T10:57:18.916Z,50.70
2023-03-04T10:59:58.300Z,51.00
2023-03-04T11:02:16.642Z,51.20
2023-03-04T11:04:26.539Z,51.20
2023-03-04T11:06:33.667Z,51.20
2023-03-04T11:08:42.594Z,51.40
2023-03-04T11:10:51.101Z,51.60
2023-03-04T11:13:05.347Z,51.50
2023-03-04T11:15:28.404Z,51.80
2023-03-04T11:17:46.458Z,52.40
2023-03-04T11:20:00.427Z,52.50
2023-03-04T11:22:08.119Z,52.20
2023-03-04T11:24:28.377Z,52.10
2023-03-04T11:26:42.401Z,52.40
2023-03-04T11:28:55.566Z,52.70
2023-03-04T11:31:06.746Z,52.70
2023-03-04T11:33:22.289Z,52.90
2023-03-04T11:35:33.994Z,53.30
2023-03-04T11:37:46.885Z,53.60
2023-03-04T11:39:59.811Z,53.60
2023-03-04T11:42:14.369Z,53.60
2023-03-04T11:44:42.171Z,53.40
2023-03-04T11:47:22.955Z,53.70
2023-03-04T11:50:01.771Z,54.10
2023-03-04T11:52:18.859Z,54.00
2023-03-04T11:54:34.323Z,53.90
2023-03-04T11:56:45.295Z,54.20
2023-03-04T11:59:35.314Z,54.30
2023-03-04T12:01:53.262Z,54.10
2023-03-04T12:04:13.178Z,53.90
2023-03-04T12:06:28.881Z,53.90
2023-03-04T12:08:57.781Z,53.70
2023-03-04T12:11:09.408Z,53.60
2023-03-04T12:13:42.541Z,53.50
2023-03-04T12:15:57.895Z,53.70
2023-03-04T12:18:25.170Z,54.00
2023-03-04T12:20:44.336Z,54.10
2023-03-04T12:22:54.634Z,53.90
2023-03-04T12:25:28.183Z,53.90
2023-03-04T12:27:46.688Z,54.20
2023-03-04T12:30:01.234Z,54.00
2023-03-04T12:32:18.555Z,54.10
2023-03-04T12:34:49.541Z,54.20
2023-03-04T12:37:13.364Z,54.10
2023-03-04T12:39:33.961Z,54.00
2023-03-04T12:41:47.543Z,54.40
2023-03-04T12:44:01.284Z,54.30
2023-03-04T12:46:21.772Z,54.50
2023-03-04T12:48:35.812Z,54.50
2023-03-04T12:50:51.648Z,54.90
2023-03-04T12:53:07.938Z,54.80
2023-03-04T12:55:18.299Z,54.90
2023-03-04T12:57:27.734Z,55.10
2023-03-04T12:59:41.320Z,54.90
2023-03-04T13:01:53.855Z,55.10
2023-03-04T13:04:13.705Z,55.10
2023-03-04T13:06:41.054Z,55.30
2023-03-04T13:09:08.360Z,55.40
2023-03-04T13:11:42.780Z,55.20
2023-03-04T13:14:05.062Z,55.40
2023-03-04T13:16:31.098Z,55.30
2023-03-04T13:18:40.417Z,56.50
2023-03-04T13:20:47.256Z,55.90
2023-03-04T13:23:01.386Z,56.00
2023-03-04T13:25:41.698Z,55.90
2023-03-04T13:27:51.287Z,56.30
2023-03-04T13:29:58.070Z,56.30
2023-03-04T13:32:08.038Z,55.90
2023-03-04T13:34:55.010Z,56.00
2023-03-04T13:37:02.162Z,56.20
2023-03-04T13:39:33.442Z,56.30
2023-03-04T13:41:53.323Z,56.50
2023-03-04T13:44:00.708Z,56.60
2023-03-04T13:46:42.269Z,56.30
2023-03-04T13:49:03.048Z,56.70
2023-03-04T13:51:28.891Z,56.50
2023-03-04T13:53:45.254Z,56.40
2023-03-04T13:56:11.591Z,56.90
2023-03-04T13:58:25.073Z,56.90
2023-03-04T14:00:34.095Z,56.80
2023-03-04T14:02:41.125Z,56.80
2023-03-04T14:04:48.919Z,56.60
2023-03-04T14:07:00.884Z,56.70
2023-03-04T14:09:17.211Z,57.00
2023-03-04T14:11:30.580Z,57.20
2023-03-04T14:13:40.587Z,57.40
2023-03-04T14:15:59.086Z,57.20
2023-03-04T14:18:08.319Z,57.30
2023-03-04T14:20:29.471Z,57.60
2023-03-04T14:22:41.465Z,57.40
2023-03-04T14:25:00.370Z,57.40
2023-03-04T14:27:16.309Z,57.90
2023-03-04T14:29:30.401Z,58.00
2023-03-04T14:31:40.283Z,58.10
2023-03-04T14:33:50.145Z,58.10
2023-03-04T14:35:59.382Z,57.90
2023-03-04T14:38:09.679Z,57.90
2023-03-04T14:40:24.844Z,57.90
2023-03-04T14:42:43.242Z,58.00
2023-03-04T14:44:53.546Z,58.00
2023-03-04T14:47:08.540Z,58.10
2023-03-04T14:49:17.486Z,58.20
2023-03-04T14:51:42.645Z,58.30
2023-03-04T14:53:58.217Z,58.20
2023-03-04T14:56:07.204Z,58.30
2023-03-04T14:58:25.040Z,58.20
2023-03-04T15:00:36.662Z,58.30
2023-03-04T15:02:42.921Z,58.50
2023-03-04T15:04:52.155Z,58.10
2023-03-04T15:07:02.462Z,58.40
2023-03-04T15:09:10.609Z,58.40
2023-03-04T15:11:26.186Z,58.40
2023-03-04T15:13:43.404Z,58.70
2023-03-04T15:15:52.327Z,58.60
2023-03-04T15:18:03.401Z,58.80
2023-03-04T15:20:26.092Z,58.40
2023-03-04T15:22:33.135Z,58.20
2023-03-04T15:24:40.200Z,58.40
2023-03-04T15:26:48.105Z,58.50
2023-03-04T15:28:55.026Z,58.40
2023-03-04T15:31:03.415Z,58.50
2023-03-04T15:33:13.228Z,58.60
2023-03-04T15:35:21.335Z,58.90
2023-03-04T15:37:30.918Z,59.00
2023-03-04T15:39:37.788Z,58.90
2023-03-04T15:41:45.074Z,59.10
2023-03-04T15:43:51.846Z,59.30
2023-03-04T15:45:59.124Z,59.10
2023-03-04T15:48:09.233Z,58.90
2023-03-04T15:50:16.670Z,59.30
2023-03-04T15:52:26.714Z,59.40
2023-03-04T15:54:34.206Z,59.50
2023-03-04T15:56:42.053Z,59.60
2023-03-04T15:58:55.121Z,60.00
2023-03-04T16:01:02.079Z,59.60
2023-03-04T16:03:15.782Z,59.90
2023-03-04T16:05:23.992Z,59.60
2023-03-04T16:07:33.168Z,59.40
2023-03-04T16:09:39.946Z,60.20
2023-03-04T16:11:48.615Z,60.10
2023-03-04T16:13:55.589Z,60.00
2023-03-04T16:16:02.791Z,60.00
2023-03-04T16:18:11.941Z,59.90
2023-03-04T16:20:21.325Z,60.20
2023-03-04T16:22:31.782Z,60.20
2023-03-04T16:24:38.764Z,60.30
2023-03-04T16:26:45.900Z,60.90
2023-03-04T16:28:53.586Z,60.80
2023-03-04T16:31:00.313Z,61.10
2023-03-04T16:33:07.590Z,61.40
2023-03-04T16:35:17.439Z,61.60
2023-03-04T16:37:24.463Z,61.60
2023-03-04T16:39:31.440Z,62.00
2023-03-04T16:41:38.516Z,62.00
2023-03-04T16:43:45.954Z,62.10
2023-03-04T16:45:52.782Z,62.30
2023-03-04T16:48:00.015Z,62.50
2023-03-04T16:50:06.988Z,63.20
2023-03-04T16:52:25.893Z,63.00
2023-03-04T16:54:34.868Z,63.00
2023-03-04T16:56:42.097Z,63.50
2023-03-04T16:58:50.000Z,63.90
2023-03-04T17:00:57.797Z,64.90
2023-03-04T17:03:05.363Z,65.20
2023-03-04T17:05:18.303Z,65.40
2023-03-04T17:07:26.711Z,66.00
2023-03-04T17:09:33.841Z,66.30
2023-03-04T17:11:41.016Z,66.20
2023-03-04T17:13:48.266Z,66.60
2023-03-04T17:15:55.231Z,66.90
2023-03-04T17:18:02.260Z,67.30
2023-03-04T17:20:10.418Z,66.70
2023-03-04T17:22:17.544Z,66.70
2023-03-04T17:24:25.904Z,67.00
2023-03-04T17:26:33.041Z,67.10
2023-03-04T17:28:40.408Z,67.80
2023-03-04T17:30:47.601Z,68.20
2023-03-04T17:32:54.273Z,68.30
2023-03-04T17:35:01.403Z,68.90
2023-03-04T17:37:08.226Z,68.90
2023-03-04T17:39:15.704Z,69.60
2023-03-04T17:41:25.916Z,69.70
2023-03-04T17:43:32.898Z,69.60
2023-03-04T17:45:40.024Z,69.70
2023-03-04T17:47:47.565Z,69.90
2023-03-04T17:49:54.333Z,70.30
2023-03-04T17:52:01.264Z,70.60
2023-03-04T17:54:09.627Z,70.80
2023-03-04T17:56:16.804Z,71.00
2023-03-04T17:58:25.726Z,71.30
2023-03-04T18:00:32.898Z,71.60
2023-03-04T18:02:39.783Z,71.90
2023-03-04T18:04:49.422Z,72.00
2023-03-04T18:06:56.194Z,72.00
2023-03-04T18:09:03.224Z,72.20
2023-03-04T18:11:10.199Z,72.40
2023-03-04T18:13:17.178Z,72.90
2023-03-04T18:15:25.740Z,73.00
2023-03-04T18:17:33.232Z,73.10
2023-03-04T18:19:40.058Z,72.80
2023-03-04T18:21:47.439Z,73.20
2023-03-04T18:23:54.424Z,73.20
2023-03-04T18:26:02.740Z,73.60
2023-03-04T18:28:09.956Z,73.60
2023-03-04T18:30:20.211Z,73.90
2023-03-04T18:32:36.243Z,74.10
2023-03-04T18:34:48.725Z,74.10
2023-03-04T18:36:55.534Z,74.30
2023-03-04T18:39:03.385Z,74.60
2023-03-04T18:41:11.800Z,74.30
2023-03-04T18:43:19.228Z,74.50
2023-03-04T18:45:26.180Z,74.60
2023-03-04T18:47:36.404Z,75.00
2023-03-04T18:49:44.667Z,75.20
2023-03-04T18:51:51.540Z,75.30
2023-03-04T18:53:58.260Z,75.10
2023-03-04T18:56:09.454Z,75.20
2023-03-04T18:58:17.128Z,75.50
2023-03-04T19:00:26.780Z,76.00
2023-03-04T19:02:38.710Z,75.80
2023-03-04T19:04:45.738Z,76.00
2023-03-04T19:06:52.713Z,75.90
2023-03-04T19:08:59.639Z,75.60
2023-03-04T19:11:06.930Z,75.80
2023-03-04T19:13:14.107Z,76.00
2023-03-04T19:15:22.157Z,76.60
2023-03-04T19:17:32.919Z,76.30
2023-03-04T19:19:41.846Z,76.20
2023-03-04T19:21:48.772Z,76.20
2023-03-04T19:23:55.810Z,76.40
2023-03-04T19:26:02.590Z,76.60
2023-03-04T19:28:09.752Z,76.90
2023-03-04T19:30:17.089Z,76.80
2023-03-04T19:32:24.449Z,77.00
2023-03-04T19:34:31.251Z,77.30
2023-03-04T19:36:40.175Z,77.20
2023-03-04T19:38:47.094Z,77.30
2023-03-04T19:40:54.276Z,77.20
2023-03-04T19:43:01.152Z,77.40
2023-03-04T19:45:10.584Z,77.60
2023-03-04T19:47:17.257Z,77.90
2023-03-04T19:49:24.490Z,78.00
2023-03-04T19:51:33.770Z,78.10
2023-03-04T19:53:42.796Z,78.10
2023-03-04T19:55:50.318Z,78.40
2023-03-04T19:57:57.570Z,78.80
2023-03-04T20:00:05.028Z,79.00
2023-03-04T20:02:13.005Z,79.00
2023-03-04T20:04:22.027Z,79.40
2023-03-04T20:06:29.825Z,79.40
2023-03-04T20:08:38.361Z,79.70
2023-03-04T20:10:47.259Z,79.50
2023-03-04T20:12:54.228Z,79.30
2023-03-04T20:15:01.166Z,79.40
2023-03-04T20:17:09.211Z,79.30
2023-03-04T20:19:18.617Z,79.40
2023-03-04T20:21:25.469Z,79.50
2023-03-04T20:23:32.909Z,79.50
2023-03-04T20:25:40.497Z,79.80
2023-03-04T20:27:49.365Z,79.70
2023-03-04T20:29:56.344Z,79.50
2023-03-04T20:32:04.300Z,79.60
2023-03-04T20:34:11.583Z,79.70
2023-03-04T20:36:18.706Z,80.00
2023-03-04T20:38:25.326Z,79.60
2023-03-04T20:40:32.459Z,79.80
2023-03-04T20:42:39.176Z,79.80
2023-03-04T20:44:48.252Z,79.80
2023-03-04T20:46:55.335Z,79.70
2023-03-04T20:49:04.048Z,79.90
2023-03-04T20:51:11.026Z,79.70
2023-03-04T20:53:17.954Z,79.60
2023-03-04T20:55:25.033Z,79.60
2023-03-04T20:57:31.956Z,79.60
2023-03-04T20:59:40.166Z,79.30
2023-03-04T21:01:50.544Z,79.30
2023-03-04T21:03:57.819Z,79.40
2023-03-04T21:06:06.927Z,79.50
2023-03-04T21:08:14.417Z,79.80
2023-03-04T21:10:21.750Z,79.90
2023-03-04T21:12:28.779Z,79.90
2023-03-04T21:14:36.524Z,79.30
2023-03-04T21:16:44.076Z,79.40
2023-03-04T21:18:52.885Z,79.70
2023-03-04T21:21:00.018Z,79.70
2023-03-04T21:23:06.948Z,80.00
2023-03-04T21:25:14.179Z,80.10
2023-03-04T21:27:21.053Z,80.50
2023-03-04T21:29:29.629Z,80.30
2023-03-04T21:31:41.717Z,80.20
2023-03-04T21:33:51.307Z,80.10
2023-03-04T21:35:58.017Z,80.30
2023-03-04T21:38:04.953Z,80.30
2023-03-04T21:40:13.162Z,80.30
2023-03-04T21:42:20.408Z,80.40
2023-03-04T21:44:38.534Z,81.00
2023-03-04T21:46:55.060Z,81.20
2023-03-04T21:49:04.633Z,81.20
2023-03-04T21:51:13.865Z,81.30
2023-03-04T21:53:22.890Z,82.00
2023-03-04T21:55:30.188Z,81.50
2023-03-04T21:57:37.205Z,81.40
2023-03-04T21:59:44.134Z,81.50
2023-03-04T22:01:51.582Z,81.40
2023-03-04T22:03:58.704Z,81.50
2023-03-04T22:06:10.762Z,81.60
2023-03-04T22:08:19.676Z,81.70
2023-03-04T22:10:26.394Z,81.70
2023-03-04T22:12:33.478Z,81.60
2023-03-04T22:14:40.299Z,81.70
2023-03-04T22:16:55.220Z,81.90
2023-03-04T22:19:03.050Z,81.80
2023-03-04T22:21:13.918Z,82.30
2023-03-04T22:23:21.885Z,82.30
2023-03-04T22:25:29.269Z,82.20
2023-03-04T22:27:35.937Z,82.30
2023-03-04T22:29:42.954Z,82.20
2023-03-04T22:31:49.885Z,82.40
2023-03-04T22:33:56.912Z,82.50
2023-03-04T22:36:04.045Z,82.70
2023-03-04T22:38:12.778Z,82.70
2023-03-04T22:40:19.749Z,82.70
2023-03-04T22:42:27.094Z,82.90
2023-03-04T22:44:35.445Z,82.70
2023-03-04T22:46:43.658Z,82.70
2023-03-04T22:48:50.630Z,83.00
2023-03-04T22:50:57.754Z,83.00
2023-03-04T22:53:05.805Z,82.40
2023-03-04T22:55:15.439Z,82.40
2023-03-04T22:57:22.316Z,82.80
2023-03-04T22:59:29.494Z,82.70
2023-03-04T23:01:36.216Z,82.90
2023-03-04T23:03:44.175Z,83.00
2023-03-04T23:05:51.242Z,83.40
2023-03-04T23:07:58.578Z,83.20
2023-03-04T23:10:05.249Z,83.30
2023-03-04T23:12:14.373Z,83.10
2023-03-04T23:14:21.186Z,83.20
2023-03-04T23:16:28.764Z,83.30
2023-03-04T23:18:35.564Z,83.50
2023-03-04T23:20:44.381Z,83.50
2023-03-04T23:22:52.124Z,83.80
2023-03-04T23:25:00.129Z,83.80
2023-03-04T23:27:06.949Z,84.00
2023-03-04T23:29:19.047Z,83.90
2023-03-04T23:31:26.490Z,84.00
2023-03-04T23:33:33.257Z,83.90
2023-03-04T23:35:40.259Z,84.10
2023-03-04T23:37:47.210Z,84.00
2023-03-04T23:39:54.444Z,84.30
2023-03-04T23:42:01.267Z,84.60
2023-03-04T23:44:09.257Z,84.50
2023-03-04T23:46:18.603Z,84.40
2023-03-04T23:48:25.526Z,84.50
2023-03-04T23:50:33.169Z,84.50
2023-03-04T23:52:40.149Z,84.70
2023-03-04T23:54:46.761Z,84.30
2023-03-04T23:56:53.890Z,84.30
2023-03-04T23:59:01.240Z,84.90
